sensor_id;sensor_type;location;lat;lon;timestamp;pressure;altitude;pressure_sealevel;temperature;humidity
75553;BME280;64136;53.118;17.996;2023-06-10T00:01:50;101013.36;;;19.47;56.76
75553;BME280;64136;53.118;17.996;2023-06-10T00:04:18;101013.02;;;19.44;56.79
75553;BME280;64136;53.118;17.996;2023-06-10T00:06:45;101016.45;;;19.43;56.91
75553;BME280;64136;53.118;17.996;2023-06-10T00:09:15;101018.29;;;19.39;57.04
75553;BME280;64136;53.118;17.996;2023-06-10T00:11:42;101017.45;;;19.36;56.97
75553;BME280;64136;53.118;17.996;2023-06-10T00:14:09;101017.30;;;19.36;56.76
75553;BME280;64136;53.118;17.996;2023-06-10T00:16:36;101016.11;;;19.37;56.77
75553;BME280;64136;53.118;17.996;2023-06-10T00:19:05;101021.80;;;19.39;56.60
75553;BME280;64136;53.118;17.996;2023-06-10T00:21:34;101019.86;;;19.41;56.53
75553;BME280;64136;53.118;17.996;2023-06-10T00:24:07;101020.48;;;19.42;56.35
75553;BME280;64136;53.118;17.996;2023-06-10T00:26:39;101022.89;;;19.43;56.27
75553;BME280;64136;53.118;17.996;2023-06-10T00:29:08;101021.49;;;19.44;56.09
75553;BME280;64136;53.118;17.996;2023-06-10T00:31:36;101020.66;;;19.46;55.91
75553;BME280;64136;53.118;17.996;2023-06-10T00:34:03;101023.23;;;19.47;55.73
75553;BME280;64136;53.118;17.996;2023-06-10T00:36:31;101019.27;;;19.47;55.69
75553;BME280;64136;53.118;17.996;2023-06-10T00:38:58;101021.19;;;19.49;55.45
75553;BME280;64136;53.118;17.996;2023-06-10T00:41:26;101024.14;;;19.49;55.11
75553;BME280;64136;53.118;17.996;2023-06-10T00:43:52;101023.83;;;19.50;55.10
75553;BME280;64136;53.118;17.996;2023-06-10T00:46:21;101024.90;;;19.50;55.13
75553;BME280;64136;53.118;17.996;2023-06-10T00:48:50;101026.11;;;19.55;54.95
75553;BME280;64136;53.118;17.996;2023-06-10T00:51:18;101026.90;;;19.56;54.71
75553;BME280;64136;53.118;17.996;2023-06-10T00:53:45;101033.33;;;19.58;54.41
75553;BME280;64136;53.118;17.996;2023-06-10T00:56:13;101037.61;;;19.58;54.13
75553;BME280;64136;53.118;17.996;2023-06-10T00:58:42;101039.36;;;19.61;53.96
75553;BME280;64136;53.118;17.996;2023-06-10T01:01:09;101046.73;;;19.61;54.01
75553;BME280;64136;53.118;17.996;2023-06-10T01:03:38;101044.64;;;19.60;54.09
75553;BME280;64136;53.118;17.996;2023-06-10T01:06:18;101050.27;;;19.59;54.05
75553;BME280;64136;53.118;17.996;2023-06-10T01:09:03;101047.48;;;19.58;54.00
75553;BME280;64136;53.118;17.996;2023-06-10T01:11:39;101049.92;;;19.59;53.95
75553;BME280;64136;53.118;17.996;2023-06-10T01:14:09;101055.64;;;19.61;53.93
75553;BME280;64136;53.118;17.996;2023-06-10T01:16:37;101055.66;;;19.63;53.90
75553;BME280;64136;53.118;17.996;2023-06-10T01:19:04;101054.41;;;19.65;53.86
75553;BME280;64136;53.118;17.996;2023-06-10T01:21:30;101056.92;;;19.61;54.05
75553;BME280;64136;53.118;17.996;2023-06-10T01:23:57;101056.63;;;19.53;54.34
75553;BME280;64136;53.118;17.996;2023-06-10T01:26:26;101055.44;;;19.46;54.41
75553;BME280;64136;53.118;17.996;2023-06-10T01:29:05;101054.67;;;19.45;54.34
75553;BME280;64136;53.118;17.996;2023-06-10T01:31:48;101052.61;;;19.46;54.26
75553;BME280;64136;53.118;17.996;2023-06-10T01:34:18;101053.34;;;19.46;53.89
75553;BME280;64136;53.118;17.996;2023-06-10T01:36:47;101057.58;;;19.44;53.76
75553;BME280;64136;53.118;17.996;2023-06-10T01:39:16;101055.15;;;19.46;53.66
75553;BME280;64136;53.118;17.996;2023-06-10T01:41:44;101059.92;;;19.46;53.56
75553;BME280;64136;53.118;17.996;2023-06-10T01:44:11;101059.70;;;19.47;53.40
75553;BME280;64136;53.118;17.996;2023-06-10T01:46:40;101060.23;;;19.47;53.33
75553;BME280;64136;53.118;17.996;2023-06-10T01:49:06;101065.70;;;19.46;53.31
75553;BME280;64136;53.118;17.996;2023-06-10T01:51:33;101069.47;;;19.46;53.29
75553;BME280;64136;53.118;17.996;2023-06-10T01:54:00;101076.88;;;19.46;53.40
75553;BME280;64136;53.118;17.996;2023-06-10T01:56:27;101076.12;;;19.46;53.17
75553;BME280;64136;53.118;17.996;2023-06-10T01:58:53;101073.83;;;19.48;53.17
75553;BME280;64136;53.118;17.996;2023-06-10T02:01:26;101075.83;;;19.49;53.18
75553;BME280;64136;53.118;17.996;2023-06-10T02:03:52;101079.05;;;19.46;53.23
75553;BME280;64136;53.118;17.996;2023-06-10T02:06:19;101084.55;;;19.42;53.30
75553;BME280;64136;53.118;17.996;2023-06-10T02:08:46;101085.02;;;19.39;53.25
75553;BME280;64136;53.118;17.996;2023-06-10T02:11:13;101087.21;;;19.35;53.37
75553;BME280;64136;53.118;17.996;2023-06-10T02:13:40;101092.54;;;19.30;53.39
75553;BME280;64136;53.118;17.996;2023-06-10T02:16:07;101091.13;;;19.24;53.55
75553;BME280;64136;53.118;17.996;2023-06-10T02:18:34;101096.88;;;19.24;53.67
75553;BME280;64136;53.118;17.996;2023-06-10T02:21:01;101096.80;;;19.25;53.74
75553;BME280;64136;53.118;17.996;2023-06-10T02:23:27;101097.77;;;19.24;54.04
75553;BME280;64136;53.118;17.996;2023-06-10T02:25:54;101094.73;;;19.22;54.19
75553;BME280;64136;53.118;17.996;2023-06-10T02:28:21;101093.20;;;19.21;54.18
75553;BME280;64136;53.118;17.996;2023-06-10T02:30:48;101096.55;;;19.21;54.11
75553;BME280;64136;53.118;17.996;2023-06-10T02:33:16;101094.85;;;19.19;54.24
75553;BME280;64136;53.118;17.996;2023-06-10T02:35:44;101091.55;;;19.16;54.29
75553;BME280;64136;53.118;17.996;2023-06-10T02:38:10;101091.92;;;19.10;54.41
75553;BME280;64136;53.118;17.996;2023-06-10T02:40:37;101091.05;;;19.06;54.51
75553;BME280;64136;53.118;17.996;2023-06-10T02:43:04;101094.30;;;19.09;54.28
75553;BME280;64136;53.118;17.996;2023-06-10T02:45:31;101096.77;;;19.08;54.31
75553;BME280;64136;53.118;17.996;2023-06-10T02:47:59;101100.65;;;19.10;54.11
75553;BME280;64136;53.118;17.996;2023-06-10T02:50:26;101107.14;;;19.12;54.05
75553;BME280;64136;53.118;17.996;2023-06-10T02:53:06;101113.64;;;19.06;54.07
75553;BME280;64136;53.118;17.996;2023-06-10T02:55:35;101118.75;;;19.03;54.15
75553;BME280;64136;53.118;17.996;2023-06-10T02:58:03;101121.23;;;19.06;54.02
75553;BME280;64136;53.118;17.996;2023-06-10T03:00:31;101125.20;;;18.96;54.31
75553;BME280;64136;53.118;17.996;2023-06-10T03:02:58;101130.58;;;18.96;54.26
75553;BME280;64136;53.118;17.996;2023-06-10T03:05:31;101134.34;;;18.97;54.39
75553;BME280;64136;53.118;17.996;2023-06-10T03:07:59;101140.58;;;18.98;54.56
75553;BME280;64136;53.118;17.996;2023-06-10T03:10:27;101148.09;;;18.91;54.99
75553;BME280;64136;53.118;17.996;2023-06-10T03:12:54;101154.52;;;18.85;55.24
75553;BME280;64136;53.118;17.996;2023-06-10T03:15:23;101158.63;;;18.70;55.98
75553;BME280;64136;53.118;17.996;2023-06-10T03:17:51;101155.24;;;18.71;55.59
75553;BME280;64136;53.118;17.996;2023-06-10T03:20:18;101163.41;;;18.62;56.12
75553;BME280;64136;53.118;17.996;2023-06-10T03:22:45;101161.02;;;18.59;56.33
75553;BME280;64136;53.118;17.996;2023-06-10T03:25:12;101162.83;;;18.50;56.64
75553;BME280;64136;53.118;17.996;2023-06-10T03:27:46;101167.39;;;18.55;56.39
75553;BME280;64136;53.118;17.996;2023-06-10T03:30:13;101169.33;;;18.54;56.45
75553;BME280;64136;53.118;17.996;2023-06-10T03:32:41;101166.15;;;18.49;56.36
75553;BME280;64136;53.118;17.996;2023-06-10T03:35:09;101168.14;;;18.61;55.96
75553;BME280;64136;53.118;17.996;2023-06-10T03:37:36;101172.39;;;18.72;55.79
75553;BME280;64136;53.118;17.996;2023-06-10T03:40:04;101182.96;;;18.73;55.74
75553;BME280;64136;53.118;17.996;2023-06-10T03:46:05;101186.63;;;18.82;55.58
75553;BME280;64136;53.118;17.996;2023-06-10T03:49:03;101189.48;;;18.94;55.17
75553;BME280;64136;53.118;17.996;2023-06-10T03:51:30;101196.53;;;18.87;55.30
75553;BME280;64136;53.118;17.996;2023-06-10T03:56:53;101202.88;;;18.80;54.96
75553;BME280;64136;53.118;17.996;2023-06-10T03:59:22;101210.17;;;18.75;54.95
75553;BME280;64136;53.118;17.996;2023-06-10T04:01:52;101207.91;;;18.81;54.71
75553;BME280;64136;53.118;17.996;2023-06-10T04:04:19;101212.56;;;18.85;54.32
75553;BME280;64136;53.118;17.996;2023-06-10T04:06:46;101217.11;;;18.76;54.03
75553;BME280;64136;53.118;17.996;2023-06-10T04:09:18;101219.36;;;18.77;53.61
75553;BME280;64136;53.118;17.996;2023-06-10T04:11:52;101224.29;;;18.80;53.29
75553;BME280;64136;53.118;17.996;2023-06-10T04:14:20;101227.81;;;18.85;53.14
75553;BME280;64136;53.118;17.996;2023-06-10T04:16:50;101230.59;;;18.86;52.65
75553;BME280;64136;53.118;17.996;2023-06-10T04:19:24;101222.21;;;18.93;52.43
75553;BME280;64136;53.118;17.996;2023-06-10T04:21:53;101227.50;;;19.08;52.20
75553;BME280;64136;53.118;17.996;2023-06-10T04:24:20;101228.48;;;19.15;51.50
75553;BME280;64136;53.118;17.996;2023-06-10T04:27:05;101232.30;;;19.00;51.31
75553;BME280;64136;53.118;17.996;2023-06-10T04:29:37;101230.92;;;19.02;51.23
75553;BME280;64136;53.118;17.996;2023-06-10T04:32:07;101230.56;;;19.06;51.19
75553;BME280;64136;53.118;17.996;2023-06-10T04:34:37;101232.52;;;19.08;50.57
75553;BME280;64136;53.118;17.996;2023-06-10T04:37:05;101234.81;;;19.24;50.26
75553;BME280;64136;53.118;17.996;2023-06-10T04:39:44;101234.68;;;19.29;49.60
75553;BME280;64136;53.118;17.996;2023-06-10T04:42:13;101232.30;;;19.38;49.07
75553;BME280;64136;53.118;17.996;2023-06-10T04:44:56;101235.70;;;19.44;48.42
75553;BME280;64136;53.118;17.996;2023-06-10T04:47:28;101237.65;;;19.54;48.70
75553;BME280;64136;53.118;17.996;2023-06-10T04:50:10;101241.21;;;19.44;47.78
75553;BME280;64136;53.118;17.996;2023-06-10T04:52:43;101239.52;;;19.49;47.64
75553;BME280;64136;53.118;17.996;2023-06-10T04:55:16;101245.91;;;19.50;47.37
75553;BME280;64136;53.118;17.996;2023-06-10T04:57:56;101243.98;;;19.44;47.19
75553;BME280;64136;53.118;17.996;2023-06-10T05:00:27;101242.63;;;19.43;47.18
75553;BME280;64136;53.118;17.996;2023-06-10T05:02:54;101245.09;;;19.35;47.22
75553;BME280;64136;53.118;17.996;2023-06-10T05:05:22;101244.89;;;19.42;47.21
75553;BME280;64136;53.118;17.996;2023-06-10T05:07:58;101250.66;;;19.45;46.98
75553;BME280;64136;53.118;17.996;2023-06-10T05:10:25;101250.24;;;19.54;47.04
75553;BME280;64136;53.118;17.996;2023-06-10T05:13:01;101253.28;;;19.60;46.60
75553;BME280;64136;53.118;17.996;2023-06-10T05:15:32;101256.98;;;19.65;46.57
75553;BME280;64136;53.118;17.996;2023-06-10T05:20:42;101260.27;;;19.64;46.33
75553;BME280;64136;53.118;17.996;2023-06-10T05:23:09;101262.74;;;19.62;46.21
75553;BME280;64136;53.118;17.996;2023-06-10T05:28:54;101262.20;;;19.43;46.22
75553;BME280;64136;53.118;17.996;2023-06-10T05:31:41;101264.06;;;19.44;46.06
75553;BME280;64136;53.118;17.996;2023-06-10T05:44:18;101267.20;;;19.59;45.61
75553;BME280;64136;53.118;17.996;2023-06-10T05:47:30;101263.21;;;19.59;45.69
75553;BME280;64136;53.118;17.996;2023-06-10T05:50:37;101259.27;;;19.54;45.66
75553;BME280;64136;53.118;17.996;2023-06-10T05:53:22;101265.46;;;19.56;45.84
75553;BME280;64136;53.118;17.996;2023-06-10T05:55:58;101269.66;;;19.58;45.68
75553;BME280;64136;53.118;17.996;2023-06-10T06:04:28;101258.98;;;19.53;45.66
75553;BME280;64136;53.118;17.996;2023-06-10T06:07:00;101263.04;;;19.59;45.65
75553;BME280;64136;53.118;17.996;2023-06-10T06:09:48;101262.63;;;19.58;45.68
75553;BME280;64136;53.118;17.996;2023-06-10T06:20:34;101266.51;;;19.57;47.70
75553;BME280;64136;53.118;17.996;2023-06-10T06:23:33;101267.39;;;19.59;47.76
75553;BME280;64136;53.118;17.996;2023-06-10T06:26:16;101265.48;;;19.60;47.56
75553;BME280;64136;53.118;17.996;2023-06-10T06:37:32;101274.26;;;19.92;46.60
75553;BME280;64136;53.118;17.996;2023-06-10T06:40:13;101272.18;;;20.15;46.14
75553;BME280;64136;53.118;17.996;2023-06-10T06:42:45;101274.02;;;20.34;45.77
75553;BME280;64136;53.118;17.996;2023-06-10T06:45:24;101271.50;;;20.28;45.44
75553;BME280;64136;53.118;17.996;2023-06-10T06:48:03;101274.66;;;20.27;45.57
75553;BME280;64136;53.118;17.996;2023-06-10T06:50:36;101280.87;;;20.36;45.72
75553;BME280;64136;53.118;17.996;2023-06-10T06:56:25;101278.45;;;20.85;45.10
75553;BME280;64136;53.118;17.996;2023-06-10T07:02:03;101283.02;;;21.16;44.54
75553;BME280;64136;53.118;17.996;2023-06-10T07:04:42;101285.01;;;21.31;44.42
75553;BME280;64136;53.118;17.996;2023-06-10T07:07:12;101288.16;;;21.47;43.96
75553;BME280;64136;53.118;17.996;2023-06-10T07:09:46;101292.56;;;21.64;43.90
75553;BME280;64136;53.118;17.996;2023-06-10T07:12:29;101288.38;;;21.86;43.40
75553;BME280;64136;53.118;17.996;2023-06-10T07:15:04;101289.91;;;21.89;42.56
75553;BME280;64136;53.118;17.996;2023-06-10T07:17:43;101290.73;;;21.93;42.43
75553;BME280;64136;53.118;17.996;2023-06-10T07:20:29;101296.05;;;21.86;42.48
75553;BME280;64136;53.118;17.996;2023-06-10T07:25:57;101292.36;;;21.86;42.08
75553;BME280;64136;53.118;17.996;2023-06-10T07:28:37;101295.61;;;21.83;41.18
75553;BME280;64136;53.118;17.996;2023-06-10T07:31:04;101295.75;;;21.92;41.33
75553;BME280;64136;53.118;17.996;2023-06-10T07:33:42;101296.69;;;21.86;40.97
75553;BME280;64136;53.118;17.996;2023-06-10T07:36:12;101293.90;;;21.96;41.37
75553;BME280;64136;53.118;17.996;2023-06-10T07:38:42;101299.98;;;22.09;41.79
75553;BME280;64136;53.118;17.996;2023-06-10T07:41:26;101294.60;;;22.28;41.83
75553;BME280;64136;53.118;17.996;2023-06-10T07:43:56;101295.52;;;22.44;41.83
75553;BME280;64136;53.118;17.996;2023-06-10T07:49:34;101300.86;;;22.39;42.12
75553;BME280;64136;53.118;17.996;2023-06-10T07:52:21;101298.20;;;22.26;42.79
75553;BME280;64136;53.118;17.996;2023-06-10T07:55:11;101302.48;;;22.21;42.69
75553;BME280;64136;53.118;17.996;2023-06-10T07:57:41;101302.20;;;22.27;42.72
75553;BME280;64136;53.118;17.996;2023-06-10T08:00:09;101299.54;;;22.35;42.86
75553;BME280;64136;53.118;17.996;2023-06-10T08:02:47;101303.04;;;22.44;42.65
75553;BME280;64136;53.118;17.996;2023-06-10T08:05:25;101305.77;;;22.56;42.59
75553;BME280;64136;53.118;17.996;2023-06-10T08:08:10;101305.27;;;22.56;42.00
75553;BME280;64136;53.118;17.996;2023-06-10T08:10:37;101305.31;;;22.58;41.89
75553;BME280;64136;53.118;17.996;2023-06-10T08:13:33;101303.63;;;22.68;41.11
75553;BME280;64136;53.118;17.996;2023-06-10T08:18:44;101303.11;;;22.79;40.11
75553;BME280;64136;53.118;17.996;2023-06-10T08:21:33;101306.36;;;22.88;39.73
75553;BME280;64136;53.118;17.996;2023-06-10T08:24:12;101310.58;;;22.96;39.54
75553;BME280;64136;53.118;17.996;2023-06-10T08:26:44;101310.39;;;23.02;39.09
75553;BME280;64136;53.118;17.996;2023-06-10T08:29:12;101313.96;;;22.97;38.81
75553;BME280;64136;53.118;17.996;2023-06-10T08:31:43;101315.53;;;23.01;38.51
75553;BME280;64136;53.118;17.996;2023-06-10T08:34:14;101317.38;;;22.97;38.36
75553;BME280;64136;53.118;17.996;2023-06-10T08:36:41;101312.98;;;23.06;38.11
75553;BME280;64136;53.118;17.996;2023-06-10T08:39:09;101315.80;;;23.23;38.18
75553;BME280;64136;53.118;17.996;2023-06-10T08:41:42;101321.02;;;23.30;37.03
75553;BME280;64136;53.118;17.996;2023-06-10T08:44:19;101316.94;;;23.38;37.24
75553;BME280;64136;53.118;17.996;2023-06-10T08:46:50;101319.40;;;23.48;37.21
75553;BME280;64136;53.118;17.996;2023-06-10T08:49:26;101319.47;;;23.46;37.83
75553;BME280;64136;53.118;17.996;2023-06-10T08:54:36;101316.84;;;23.72;37.73
75553;BME280;64136;53.118;17.996;2023-06-10T08:57:12;101314.94;;;23.68;37.17
75553;BME280;64136;53.118;17.996;2023-06-10T08:59:54;101316.32;;;23.87;37.24
75553;BME280;64136;53.118;17.996;2023-06-10T09:02:22;101317.17;;;23.96;36.40
75553;BME280;64136;53.118;17.996;2023-06-10T09:04:53;101317.70;;;23.97;36.06
75553;BME280;64136;53.118;17.996;2023-06-10T09:07:25;101316.23;;;24.02;36.42
75553;BME280;64136;53.118;17.996;2023-06-10T09:09:55;101321.33;;;24.10;36.15
75553;BME280;64136;53.118;17.996;2023-06-10T09:12:23;101320.84;;;24.05;35.35
75553;BME280;64136;53.118;17.996;2023-06-10T09:14:50;101323.46;;;24.06;35.20
75553;BME280;64136;53.118;17.996;2023-06-10T09:17:18;101321.34;;;23.92;35.63
75553;BME280;64136;53.118;17.996;2023-06-10T09:19:46;101323.83;;;23.99;35.79
75553;BME280;64136;53.118;17.996;2023-06-10T09:22:21;101326.89;;;24.03;35.26
75553;BME280;64136;53.118;17.996;2023-06-10T09:24:49;101325.80;;;24.08;35.48
75553;BME280;64136;53.118;17.996;2023-06-10T09:27:16;101321.73;;;24.23;35.71
75553;BME280;64136;53.118;17.996;2023-06-10T09:29:51;101324.02;;;24.34;35.35
75553;BME280;64136;53.118;17.996;2023-06-10T09:32:19;101326.94;;;24.29;34.46
75553;BME280;64136;53.118;17.996;2023-06-10T09:34:47;101320.52;;;24.34;34.79
75553;BME280;64136;53.118;17.996;2023-06-10T09:37:20;101328.18;;;24.35;34.53
75553;BME280;64136;53.118;17.996;2023-06-10T09:40:04;101323.16;;;24.30;34.71
75553;BME280;64136;53.118;17.996;2023-06-10T09:42:36;101316.51;;;24.42;34.47
75553;BME280;64136;53.118;17.996;2023-06-10T09:45:04;101319.77;;;24.52;34.08
75553;BME280;64136;53.118;17.996;2023-06-10T09:50:04;101313.54;;;24.68;34.02
75553;BME280;64136;53.118;17.996;2023-06-10T09:52:32;101326.31;;;24.68;33.40
75553;BME280;64136;53.118;17.996;2023-06-10T09:55:02;101318.15;;;24.76;33.55
75553;BME280;64136;53.118;17.996;2023-06-10T09:57:33;101328.23;;;24.59;31.98
75553;BME280;64136;53.118;17.996;2023-06-10T10:00:05;101323.16;;;24.62;31.10
75553;BME280;64136;53.118;17.996;2023-06-10T10:02:50;101316.30;;;24.65;31.34
75553;BME280;64136;53.118;17.996;2023-06-10T10:05:21;101322.18;;;24.76;30.05
75553;BME280;64136;53.118;17.996;2023-06-10T10:07:48;101323.01;;;24.83;29.78
75553;BME280;64136;53.118;17.996;2023-06-10T10:10:20;101323.21;;;24.84;29.82
75553;BME280;64136;53.118;17.996;2023-06-10T10:12:54;101324.21;;;24.80;30.16
75553;BME280;64136;53.118;17.996;2023-06-10T10:15:32;101321.63;;;24.93;30.03
75553;BME280;64136;53.118;17.996;2023-06-10T10:18:07;101317.69;;;24.94;31.14
75553;BME280;64136;53.118;17.996;2023-06-10T10:23:19;101316.91;;;24.99;32.98
75553;BME280;64136;53.118;17.996;2023-06-10T10:25:57;101326.56;;;25.07;32.38
75553;BME280;64136;53.118;17.996;2023-06-10T10:28:36;101322.20;;;25.15;31.52
75553;BME280;64136;53.118;17.996;2023-06-10T10:31:11;101316.27;;;25.24;31.33
75553;BME280;64136;53.118;17.996;2023-06-10T10:33:51;101313.92;;;25.35;31.32
75553;BME280;64136;53.118;17.996;2023-06-10T10:36:19;101321.01;;;25.52;31.03
75553;BME280;64136;53.118;17.996;2023-06-10T10:38:47;101313.42;;;25.64;31.05
75553;BME280;64136;53.118;17.996;2023-06-10T10:41:16;101312.86;;;25.49;30.83
75553;BME280;64136;53.118;17.996;2023-06-10T10:43:45;101316.02;;;25.51;30.86
75553;BME280;64136;53.118;17.996;2023-06-10T10:46:14;101313.42;;;25.47;30.40
75553;BME280;64136;53.118;17.996;2023-06-10T10:48:49;101314.22;;;25.56;30.11
75553;BME280;64136;53.118;17.996;2023-06-10T10:51:18;101315.39;;;25.67;30.00
75553;BME280;64136;53.118;17.996;2023-06-10T10:54:12;101319.59;;;25.72;29.12
75553;BME280;64136;53.118;17.996;2023-06-10T10:56:39;101318.53;;;25.57;29.30
75553;BME280;64136;53.118;17.996;2023-06-10T10:59:07;101323.90;;;25.32;29.49
75553;BME280;64136;53.118;17.996;2023-06-10T11:01:41;101321.38;;;25.29;29.31
75553;BME280;64136;53.118;17.996;2023-06-10T11:04:12;101315.52;;;25.43;29.24
75553;BME280;64136;53.118;17.996;2023-06-10T11:06:52;101318.33;;;25.62;28.91
75553;BME280;64136;53.118;17.996;2023-06-10T11:09:26;101317.40;;;25.66;28.53
75553;BME280;64136;53.118;17.996;2023-06-10T11:14:54;101311.77;;;25.52;27.44
75553;BME280;64136;53.118;17.996;2023-06-10T11:17:22;101315.73;;;25.66;28.14
75553;BME280;64136;53.118;17.996;2023-06-10T11:19:49;101309.96;;;25.50;28.86
75553;BME280;64136;53.118;17.996;2023-06-10T11:22:19;101310.86;;;25.60;27.25
75553;BME280;64136;53.118;17.996;2023-06-10T11:24:52;101313.81;;;25.64;26.49
75553;BME280;64136;53.118;17.996;2023-06-10T11:27:21;101314.91;;;25.77;26.24
75553;BME280;64136;53.118;17.996;2023-06-10T11:32:22;101313.33;;;26.11;25.25
75553;BME280;64136;53.118;17.996;2023-06-10T11:34:53;101310.39;;;26.29;25.36
75553;BME280;64136;53.118;17.996;2023-06-10T11:37:21;101311.69;;;26.91;24.63
75553;BME280;64136;53.118;17.996;2023-06-10T11:39:51;101306.80;;;27.19;23.16
75553;BME280;64136;53.118;17.996;2023-06-10T11:42:18;101308.54;;;27.27;22.68
75553;BME280;64136;53.118;17.996;2023-06-10T11:44:50;101302.02;;;27.80;23.24
75553;BME280;64136;53.118;17.996;2023-06-10T11:47:18;101307.49;;;28.12;22.43
75553;BME280;64136;53.118;17.996;2023-06-10T11:49:56;101301.52;;;28.11;21.88
75553;BME280;64136;53.118;17.996;2023-06-10T11:52:26;101301.23;;;28.24;22.08
75553;BME280;64136;53.118;17.996;2023-06-10T11:54:55;101299.66;;;28.55;21.55
75553;BME280;64136;53.118;17.996;2023-06-10T11:57:22;101294.13;;;29.11;20.97
75553;BME280;64136;53.118;17.996;2023-06-10T11:59:48;101297.05;;;29.18;20.57
75553;BME280;64136;53.118;17.996;2023-06-10T12:02:16;101297.15;;;29.22;20.30
75553;BME280;64136;53.118;17.996;2023-06-10T12:04:43;101292.88;;;28.87;20.69
75553;BME280;64136;53.118;17.996;2023-06-10T12:07:17;101302.80;;;29.19;20.58
75553;BME280;64136;53.118;17.996;2023-06-10T12:09:46;101298.02;;;29.53;20.16
75553;BME280;64136;53.118;17.996;2023-06-10T12:12:12;101296.52;;;29.52;20.22
75553;BME280;64136;53.118;17.996;2023-06-10T12:20:08;101295.55;;;29.99;19.82
75553;BME280;64136;53.118;17.996;2023-06-10T12:22:40;101288.42;;;30.60;19.42
75553;BME280;64136;53.118;17.996;2023-06-10T12:25:08;101289.60;;;31.00;19.22
75553;BME280;64136;53.118;17.996;2023-06-10T12:27:36;101288.53;;;30.68;18.85
75553;BME280;64136;53.118;17.996;2023-06-10T12:30:05;101290.42;;;30.90;18.31
75553;BME280;64136;53.118;17.996;2023-06-10T12:32:43;101276.55;;;31.78;18.06
75553;BME280;64136;53.118;17.996;2023-06-10T12:35:12;101275.54;;;32.63;17.24
75553;BME280;64136;53.118;17.996;2023-06-10T12:37:40;101280.25;;;32.21;16.71
75553;BME280;64136;53.118;17.996;2023-06-10T12:40:07;101284.01;;;31.92;16.69
75553;BME280;64136;53.118;17.996;2023-06-10T12:42:38;101281.56;;;31.96;16.96
75553;BME280;64136;53.118;17.996;2023-06-10T12:45:05;101279.17;;;32.66;16.47
75553;BME280;64136;53.118;17.996;2023-06-10T12:47:36;101275.39;;;33.54;16.30
75553;BME280;64136;53.118;17.996;2023-06-10T12:50:05;101286.88;;;33.06;15.97
75553;BME280;64136;53.118;17.996;2023-06-10T12:52:33;101278.62;;;33.38;15.65
75553;BME280;64136;53.118;17.996;2023-06-10T12:54:59;101278.36;;;34.36;14.86
75553;BME280;64136;53.118;17.996;2023-06-10T12:57:27;101278.64;;;34.41;14.21
75553;BME280;64136;53.118;17.996;2023-06-10T12:59:53;101288.08;;;34.65;13.43
75553;BME280;64136;53.118;17.996;2023-06-10T13:02:20;101288.44;;;34.72;13.03
75553;BME280;64136;53.118;17.996;2023-06-10T13:04:47;101280.88;;;34.07;13.84
75553;BME280;64136;53.118;17.996;2023-06-10T13:07:14;101269.22;;;35.50;13.21
75553;BME280;64136;53.118;17.996;2023-06-10T13:09:41;101271.45;;;35.60;12.74
75553;BME280;64136;53.118;17.996;2023-06-10T13:12:08;101265.63;;;35.70;12.19
75553;BME280;64136;53.118;17.996;2023-06-10T13:14:37;101267.91;;;35.77;11.88
75553;BME280;64136;53.118;17.996;2023-06-10T13:17:04;101263.98;;;35.58;11.48
75553;BME280;64136;53.118;17.996;2023-06-10T13:19:34;101261.23;;;35.46;10.70
75553;BME280;64136;53.118;17.996;2023-06-10T13:22:01;101261.90;;;35.04;10.93
75553;BME280;64136;53.118;17.996;2023-06-10T13:24:27;101257.86;;;34.95;11.81
75553;BME280;64136;53.118;17.996;2023-06-10T13:26:54;101248.42;;;35.30;12.09
75553;BME280;64136;53.118;17.996;2023-06-10T13:29:22;101254.86;;;35.43;12.22
75553;BME280;64136;53.118;17.996;2023-06-10T13:31:49;101253.77;;;35.22;12.61
75553;BME280;64136;53.118;17.996;2023-06-10T13:34:16;101252.61;;;36.32;12.42
75553;BME280;64136;53.118;17.996;2023-06-10T13:36:43;101249.52;;;35.84;13.23
75553;BME280;64136;53.118;17.996;2023-06-10T13:39:09;101240.84;;;36.41;12.81
75553;BME280;64136;53.118;17.996;2023-06-10T13:41:36;101250.66;;;36.50;12.70
75553;BME280;64136;53.118;17.996;2023-06-10T13:44:03;101246.23;;;35.90;13.22
75553;BME280;64136;53.118;17.996;2023-06-10T13:46:29;101245.36;;;37.32;12.44
75553;BME280;64136;53.118;17.996;2023-06-10T13:48:56;101247.98;;;37.07;12.15
75553;BME280;64136;53.118;17.996;2023-06-10T13:51:22;101237.14;;;37.08;12.43
75553;BME280;64136;53.118;17.996;2023-06-10T13:53:49;101237.65;;;37.70;12.08
75553;BME280;64136;53.118;17.996;2023-06-10T13:56:18;101242.84;;;37.58;12.30
75553;BME280;64136;53.118;17.996;2023-06-10T13:58:45;101232.34;;;37.52;12.16
75553;BME280;64136;53.118;17.996;2023-06-10T14:01:12;101233.27;;;37.93;12.01
75553;BME280;64136;53.118;17.996;2023-06-10T14:03:38;101241.11;;;38.34;11.47
75553;BME280;64136;53.118;17.996;2023-06-10T14:06:05;101239.81;;;38.97;11.00
75553;BME280;64136;53.118;17.996;2023-06-10T14:08:34;101238.16;;;38.76;11.52
75553;BME280;64136;53.118;17.996;2023-06-10T14:11:01;101235.60;;;37.90;11.21
75553;BME280;64136;53.118;17.996;2023-06-10T14:13:28;101242.33;;;37.50;10.76
75553;BME280;64136;53.118;17.996;2023-06-10T14:15:55;101242.48;;;36.82;11.04
75553;BME280;64136;53.118;17.996;2023-06-10T14:18:22;101237.93;;;36.31;11.60
75553;BME280;64136;53.118;17.996;2023-06-10T14:20:49;101241.92;;;36.84;11.45